sensor_id;sensor_type;location;lat;lon;timestamp;temperature;humidity
23544;DHT22;11950;51.230;4.012;2023-05-01T00:00:19;15.60;99.90
23544;DHT22;11950;51.230;4.012;2023-05-01T00:02:50;15.50;99.90
23544;DHT22;11950;51.230;4.012;2023-05-01T00:05:16;15.50;99.90
23544;DHT22;11950;51.230;4.012;2023-05-01T00:07:42;15.40;99.90
23544;DHT22;11950;51.230;4.012;2023-05-01T00:10:09;15.40;99.90
23544;DHT22;11950;51.230;4.012;2023-05-01T00:12:35;15.40;99.90
23544;DHT22;11950;51.230;4.012;2023-05-01T00:15:02;15.30;99.90
23544;DHT22;11950;51.230;4.012;2023-05-01T00:17:28;15.20;99.90
23544;DHT22;11950;51.230;4.012;2023-05-01T00:19:56;15.20;99.90
23544;DHT22;11950;51.230;4.012;2023-05-01T00:22:22;15.10;99.90
23544;DHT22;11950;51.230;4.012;2023-05-01T00:24:48;15.10;99.90
23544;DHT22;11950;51.230;4.012;2023-05-01T00:27:15;15.00;99.90
23544;DHT22;11950;51.230;4.012;2023-05-01T00:29:41;15.00;99.90
23544;DHT22;11950;51.230;4.012;2023-05-01T00:32:07;14.90;99.90
23544;DHT22;11950;51.230;4.012;2023-05-01T00:34:35;14.90;99.90
23544;DHT22;11950;51.230;4.012;2023-05-01T00:37:01;14.90;99.90
23544;DHT22;11950;51.230;4.012;2023-05-01T00:39:27;14.90;99.90
23544;DHT22;11950;51.230;4.012;2023-05-01T00:41:53;14.90;99.90
23544;DHT22;11950;51.230;4.012;2023-05-01T00:44:20;14.90;99.90
23544;DHT22;11950;51.230;4.012;2023-05-01T00:46:47;14.90;99.90
23544;DHT22;11950;51.230;4.012;2023-05-01T00:49:13;14.90;99.90
23544;DHT22;11950;51.230;4.012;2023-05-01T00:51:40;14.90;99.90
23544;DHT22;11950;51.230;4.012;2023-05-01T00:54:07;14.80;99.90
23544;DHT22;11950;51.230;4.012;2023-05-01T00:56:33;14.80;99.90
23544;DHT22;11950;51.230;4.012;2023-05-01T00:59:00;14.80;99.90
23544;DHT22;11950;51.230;4.012;2023-05-01T01:01:27;14.80;99.90
23544;DHT22;11950;51.230;4.012;2023-05-01T01:03:53;14.70;99.90
23544;DHT22;11950;51.230;4.012;2023-05-01T01:09:26;14.70;99.90
23544;DHT22;11950;51.230;4.012;2023-05-01T01:12:08;14.60;99.90
23544;DHT22;11950;51.230;4.012;2023-05-01T01:14:47;14.60;99.90
23544;DHT22;11950;51.230;4.012;2023-05-01T01:17:29;14.60;99.90
23544;DHT22;11950;51.230;4.012;2023-05-01T01:20:30;14.60;99.90
23544;DHT22;11950;51.230;4.012;2023-05-01T01:36:18;14.40;99.90
23544;DHT22;11950;51.230;4.012;2023-05-01T01:38:47;14.40;99.90
23544;DHT22;11950;51.230;4.012;2023-05-01T01:41:32;14.40;99.90
23544;DHT22;11950;51.230;4.012;2023-05-01T01:44:18;14.30;99.90
23544;DHT22;11950;51.230;4.012;2023-05-01T01:46:47;14.30;99.90
23544;DHT22;11950;51.230;4.012;2023-05-01T01:49:20;14.30;99.90
23544;DHT22;11950;51.230;4.012;2023-05-01T01:51:49;14.30;99.90
23544;DHT22;11950;51.230;4.012;2023-05-01T01:54:21;14.30;99.90
23544;DHT22;11950;51.230;4.012;2023-05-01T01:56:49;14.20;99.90
23544;DHT22;11950;51.230;4.012;2023-05-01T01:59:16;14.20;99.90
23544;DHT22;11950;51.230;4.012;2023-05-01T02:01:45;14.20;99.90
23544;DHT22;11950;51.230;4.012;2023-05-01T02:04:14;14.10;99.90
23544;DHT22;11950;51.230;4.012;2023-05-01T02:06:42;14.10;99.90
23544;DHT22;11950;51.230;4.012;2023-05-01T02:09:09;14.10;99.90
23544;DHT22;11950;51.230;4.012;2023-05-01T02:11:37;14.10;99.90
23544;DHT22;11950;51.230;4.012;2023-05-01T02:14:05;14.10;99.90
23544;DHT22;11950;51.230;4.012;2023-05-01T02:16:34;14.10;99.90
23544;DHT22;11950;51.230;4.012;2023-05-01T02:19:03;14.10;99.90
23544;DHT22;11950;51.230;4.012;2023-05-01T02:21:32;14.00;99.90
23544;DHT22;11950;51.230;4.012;2023-05-01T02:24:04;14.00;99.90
23544;DHT22;11950;51.230;4.012;2023-05-01T02:26:31;14.00;99.90
23544;DHT22;11950;51.230;4.012;2023-05-01T02:28:59;14.00;99.90
23544;DHT22;11950;51.230;4.012;2023-05-01T02:31:26;14.00;99.90
23544;DHT22;11950;51.230;4.012;2023-05-01T02:33:52;13.90;99.90
23544;DHT22;11950;51.230;4.012;2023-05-01T02:36:19;13.90;99.90
23544;DHT22;11950;51.230;4.012;2023-05-01T02:38:45;13.90;99.90
23544;DHT22;11950;51.230;4.012;2023-05-01T02:41:14;13.90;99.90
23544;DHT22;11950;51.230;4.012;2023-05-01T02:43:41;13.90;99.90
23544;DHT22;11950;51.230;4.012;2023-05-01T02:46:10;14.00;99.90
23544;DHT22;11950;51.230;4.012;2023-05-01T02:48:37;14.00;99.90
23544;DHT22;11950;51.230;4.012;2023-05-01T02:51:06;14.00;99.90
23544;DHT22;11950;51.230;4.012;2023-05-01T02:53:33;14.00;99.90
23544;DHT22;11950;51.230;4.012;2023-05-01T02:56:13;14.00;99.90
23544;DHT22;11950;51.230;4.012;2023-05-01T02:58:39;14.00;99.90
23544;DHT22;11950;51.230;4.012;2023-05-01T03:01:06;13.90;99.90
23544;DHT22;11950;51.230;4.012;2023-05-01T03:03:32;13.90;99.90
23544;DHT22;11950;51.230;4.012;2023-05-01T03:05:58;13.80;99.90
23544;DHT22;11950;51.230;4.012;2023-05-01T03:08:25;13.80;99.90
23544;DHT22;11950;51.230;4.012;2023-05-01T03:10:51;13.80;99.90
23544;DHT22;11950;51.230;4.012;2023-05-01T03:13:18;13.80;99.90
23544;DHT22;11950;51.230;4.012;2023-05-01T03:15:44;13.70;99.90
23544;DHT22;11950;51.230;4.012;2023-05-01T03:18:11;13.70;99.90
23544;DHT22;11950;51.230;4.012;2023-05-01T03:20:38;13.60;99.90
23544;DHT22;11950;51.230;4.012;2023-05-01T03:23:04;13.60;99.90
23544;DHT22;11950;51.230;4.012;2023-05-01T03:25:32;13.60;99.90
23544;DHT22;11950;51.230;4.012;2023-05-01T03:27:58;13.60;99.90
23544;DHT22;11950;51.230;4.012;2023-05-01T03:30:25;13.50;99.90
23544;DHT22;11950;51.230;4.012;2023-05-01T03:32:53;13.60;99.90
23544;DHT22;11950;51.230;4.012;2023-05-01T03:35:26;13.50;99.90
23544;DHT22;11950;51.230;4.012;2023-05-01T03:37:53;13.50;99.90
23544;DHT22;11950;51.230;4.012;2023-05-01T03:40:40;13.60;99.90
23544;DHT22;11950;51.230;4.012;2023-05-01T03:43:29;13.50;99.90
23544;DHT22;11950;51.230;4.012;2023-05-01T03:45:58;13.50;99.90
23544;DHT22;11950;51.230;4.012;2023-05-01T03:48:25;13.50;99.90
23544;DHT22;11950;51.230;4.012;2023-05-01T03:50:51;13.40;99.90
23544;DHT22;11950;51.230;4.012;2023-05-01T03:53:18;13.40;99.90
23544;DHT22;11950;51.230;4.012;2023-05-01T03:55:44;13.40;99.90
23544;DHT22;11950;51.230;4.012;2023-05-01T03:58:12;13.30;99.90
23544;DHT22;11950;51.230;4.012;2023-05-01T04:00:39;13.40;99.90
23544;DHT22;11950;51.230;4.012;2023-05-01T04:03:07;13.40;99.90
23544;DHT22;11950;51.230;4.012;2023-05-01T04:05:35;13.40;99.90
23544;DHT22;11950;51.230;4.012;2023-05-01T04:08:02;13.40;99.90
23544;DHT22;11950;51.230;4.012;2023-05-01T04:10:29;13.40;99.90
23544;DHT22;11950;51.230;4.012;2023-05-01T04:13:00;13.30;99.90
23544;DHT22;11950;51.230;4.012;2023-05-01T04:15:27;13.30;99.90
23544;DHT22;11950;51.230;4.012;2023-05-01T04:17:53;13.30;99.90
23544;DHT22;11950;51.230;4.012;2023-05-01T04:20:22;13.30;99.90
23544;DHT22;11950;51.230;4.012;2023-05-01T04:22:48;13.20;99.90
23544;DHT22;11950;51.230;4.012;2023-05-01T04:25:15;13.20;99.90
23544;DHT22;11950;51.230;4.012;2023-05-01T04:27:42;13.20;99.90
23544;DHT22;11950;51.230;4.012;2023-05-01T04:30:10;13.20;99.90
23544;DHT22;11950;51.230;4.012;2023-05-01T04:32:36;13.20;99.90
23544;DHT22;11950;51.230;4.012;2023-05-01T04:35:02;13.20;99.90
23544;DHT22;11950;51.230;4.012;2023-05-01T04:37:30;13.20;99.90
23544;DHT22;11950;51.230;4.012;2023-05-01T04:39:56;13.20;99.90
23544;DHT22;11950;51.230;4.012;2023-05-01T04:42:32;13.30;99.90
23544;DHT22;11950;51.230;4.012;2023-05-01T04:44:59;13.20;99.90
23544;DHT22;11950;51.230;4.012;2023-05-01T04:47:33;13.20;99.90
23544;DHT22;11950;51.230;4.012;2023-05-01T04:50:00;13.20;99.90
23544;DHT22;11950;51.230;4.012;2023-05-01T04:52:30;13.10;99.90
23544;DHT22;11950;51.230;4.012;2023-05-01T04:54:59;13.10;99.90
23544;DHT22;11950;51.230;4.012;2023-05-01T04:57:28;13.10;99.90
23544;DHT22;11950;51.230;4.012;2023-05-01T04:59:55;13.10;99.90
23544;DHT22;11950;51.230;4.012;2023-05-01T05:02:21;13.10;99.90
23544;DHT22;11950;51.230;4.012;2023-05-01T05:04:48;13.10;99.90
23544;DHT22;11950;51.230;4.012;2023-05-01T05:07:15;13.20;99.90
23544;DHT22;11950;51.230;4.012;2023-05-01T05:10:05;13.20;99.90
23544;DHT22;11950;51.230;4.012;2023-05-01T05:12:32;13.20;99.90
23544;DHT22;11950;51.230;4.012;2023-05-01T05:14:58;13.30;99.90
23544;DHT22;11950;51.230;4.012;2023-05-01T05:17:28;13.30;99.90
23544;DHT22;11950;51.230;4.012;2023-05-01T05:19:54;13.30;99.90
23544;DHT22;11950;51.230;4.012;2023-05-01T05:22:20;13.40;99.90
23544;DHT22;11950;51.230;4.012;2023-05-01T05:25:07;13.40;99.90
23544;DHT22;11950;51.230;4.012;2023-05-01T05:27:34;13.40;99.90
23544;DHT22;11950;51.230;4.012;2023-05-01T05:30:04;13.40;99.90
23544;DHT22;11950;51.230;4.012;2023-05-01T05:32:32;13.40;99.90
23544;DHT22;11950;51.230;4.012;2023-05-01T05:34:59;13.40;99.90
23544;DHT22;11950;51.230;4.012;2023-05-01T05:37:26;13.40;99.90
23544;DHT22;11950;51.230;4.012;2023-05-01T05:39:53;13.40;99.90
23544;DHT22;11950;51.230;4.012;2023-05-01T05:42:19;13.40;99.90
23544;DHT22;11950;51.230;4.012;2023-05-01T05:44:46;13.40;99.90
23544;DHT22;11950;51.230;4.012;2023-05-01T05:47:13;13.40;99.90
23544;DHT22;11950;51.230;4.012;2023-05-01T05:49:40;13.50;99.90
23544;DHT22;11950;51.230;4.012;2023-05-01T05:52:06;13.50;99.90
23544;DHT22;11950;51.230;4.012;2023-05-01T05:54:32;13.50;99.90
23544;DHT22;11950;51.230;4.012;2023-05-01T05:56:58;13.10;99.90
23544;DHT22;11950;51.230;4.012;2023-05-01T05:59:28;13.50;99.90
23544;DHT22;11950;51.230;4.012;2023-05-01T06:01:54;13.50;99.90
23544;DHT22;11950;51.230;4.012;2023-05-01T06:04:21;13.60;99.90
23544;DHT22;11950;51.230;4.012;2023-05-01T06:06:47;13.60;99.90
23544;DHT22;11950;51.230;4.012;2023-05-01T06:09:14;13.60;99.90
23544;DHT22;11950;51.230;4.012;2023-05-01T06:11:42;13.70;99.90
23544;DHT22;11950;51.230;4.012;2023-05-01T06:14:08;13.70;99.90
23544;DHT22;11950;51.230;4.012;2023-05-01T06:16:36;13.80;99.90
23544;DHT22;11950;51.230;4.012;2023-05-01T06:19:03;13.80;99.90
23544;DHT22;11950;51.230;4.012;2023-05-01T06:21:29;13.90;99.90
23544;DHT22;11950;51.230;4.012;2023-05-01T06:23:58;13.90;99.90
23544;DHT22;11950;51.230;4.012;2023-05-01T06:26:28;13.90;99.90
23544;DHT22;11950;51.230;4.012;2023-05-01T06:28:55;14.00;99.90
23544;DHT22;11950;51.230;4.012;2023-05-01T06:31:21;14.00;99.90
23544;DHT22;11950;51.230;4.012;2023-05-01T06:33:51;14.10;99.90
23544;DHT22;11950;51.230;4.012;2023-05-01T06:36:28;14.10;99.90
23544;DHT22;11950;51.230;4.012;2023-05-01T06:38:55;14.20;99.90
23544;DHT22;11950;51.230;4.012;2023-05-01T06:41:22;14.30;99.90
23544;DHT22;11950;51.230;4.012;2023-05-01T06:43:48;14.30;99.90
23544;DHT22;11950;51.230;4.012;2023-05-01T06:46:16;14.40;99.90
23544;DHT22;11950;51.230;4.012;2023-05-01T06:48:42;14.50;99.90
23544;DHT22;11950;51.230;4.012;2023-05-01T06:51:12;14.50;99.90
23544;DHT22;11950;51.230;4.012;2023-05-01T06:53:41;14.60;99.90
23544;DHT22;11950;51.230;4.012;2023-05-01T06:56:07;14.70;99.90
23544;DHT22;11950;51.230;4.012;2023-05-01T06:58:33;14.80;99.90
23544;DHT22;11950;51.230;4.012;2023-05-01T07:01:00;14.80;99.90
23544;DHT22;11950;51.230;4.012;2023-05-01T07:03:26;14.90;99.90
23544;DHT22;11950;51.230;4.012;2023-05-01T07:05:55;15.00;99.90
23544;DHT22;11950;51.230;4.012;2023-05-01T07:08:22;15.00;99.90
23544;DHT22;11950;51.230;4.012;2023-05-01T07:10:49;15.00;99.90
23544;DHT22;11950;51.230;4.012;2023-05-01T07:13:16;15.10;99.90
23544;DHT22;11950;51.230;4.012;2023-05-01T07:15:43;15.10;99.90
23544;DHT22;11950;51.230;4.012;2023-05-01T07:18:09;15.10;99.90
23544;DHT22;11950;51.230;4.012;2023-05-01T07:20:37;15.20;99.90
23544;DHT22;11950;51.230;4.012;2023-05-01T07:23:03;15.20;99.90
23544;DHT22;11950;51.230;4.012;2023-05-01T07:25:29;15.20;99.90
23544;DHT22;11950;51.230;4.012;2023-05-01T07:27:56;15.20;99.90
23544;DHT22;11950;51.230;4.012;2023-05-01T07:30:22;15.20;99.90
23544;DHT22;11950;51.230;4.012;2023-05-01T07:32:48;15.20;99.90
23544;DHT22;11950;51.230;4.012;2023-05-01T07:35:15;15.30;99.90
23544;DHT22;11950;51.230;4.012;2023-05-01T07:37:41;15.20;99.90
23544;DHT22;11950;51.230;4.012;2023-05-01T07:40:08;15.30;99.90
23544;DHT22;11950;51.230;4.012;2023-05-01T07:42:38;15.20;99.90
23544;DHT22;11950;51.230;4.012;2023-05-01T07:45:07;15.20;99.90
23544;DHT22;11950;51.230;4.012;2023-05-01T07:47:34;15.20;99.90
23544;DHT22;11950;51.230;4.012;2023-05-01T07:50:08;15.20;99.90
23544;DHT22;11950;51.230;4.012;2023-05-01T07:52:34;15.30;99.90
23544;DHT22;11950;51.230;4.012;2023-05-01T07:55:02;15.30;99.90
23544;DHT22;11950;51.230;4.012;2023-05-01T07:57:28;15.20;99.90
23544;DHT22;11950;51.230;4.012;2023-05-01T07:59:55;15.20;99.90
23544;DHT22;11950;51.230;4.012;2023-05-01T08:02:22;15.30;99.90
23544;DHT22;11950;51.230;4.012;2023-05-01T08:04:50;15.30;99.90
23544;DHT22;11950;51.230;4.012;2023-05-01T08:07:16;15.40;99.90
23544;DHT22;11950;51.230;4.012;2023-05-01T08:09:43;15.30;99.90
23544;DHT22;11950;51.230;4.012;2023-05-01T08:12:09;15.40;99.90
23544;DHT22;11950;51.230;4.012;2023-05-01T08:14:35;15.40;99.90
23544;DHT22;11950;51.230;4.012;2023-05-01T08:17:02;15.40;99.90
23544;DHT22;11950;51.230;4.012;2023-05-01T08:19:30;15.40;99.90
23544;DHT22;11950;51.230;4.012;2023-05-01T08:21:56;15.40;99.90
23544;DHT22;11950;51.230;4.012;2023-05-01T08:24:22;15.50;99.90
23544;DHT22;11950;51.230;4.012;2023-05-01T08:26:49;15.50;99.90
23544;DHT22;11950;51.230;4.012;2023-05-01T08:29:16;15.50;99.90
23544;DHT22;11950;51.230;4.012;2023-05-01T08:31:42;15.50;99.90
23544;DHT22;11950;51.230;4.012;2023-05-01T08:34:08;15.60;99.90
23544;DHT22;11950;51.230;4.012;2023-05-01T08:36:35;15.60;99.90
23544;DHT22;11950;51.230;4.012;2023-05-01T08:39:01;15.60;99.90
23544;DHT22;11950;51.230;4.012;2023-05-01T08:41:29;15.70;99.90
23544;DHT22;11950;51.230;4.012;2023-05-01T08:43:59;15.70;99.90
23544;DHT22;11950;51.230;4.012;2023-05-01T08:46:42;15.80;99.90
23544;DHT22;11950;51.230;4.012;2023-05-01T08:49:13;15.80;99.90
23544;DHT22;11950;51.230;4.012;2023-05-01T08:51:41;15.90;99.90
23544;DHT22;11950;51.230;4.012;2023-05-01T08:54:10;16.00;99.90
23544;DHT22;11950;51.230;4.012;2023-05-01T08:56:37;16.00;99.90
23544;DHT22;11950;51.230;4.012;2023-05-01T08:59:04;16.10;99.90
23544;DHT22;11950;51.230;4.012;2023-05-01T09:01:34;16.10;99.90
23544;DHT22;11950;51.230;4.012;2023-05-01T09:04:02;16.10;99.90
23544;DHT22;11950;51.230;4.012;2023-05-01T09:06:29;16.20;99.90
23544;DHT22;11950;51.230;4.012;2023-05-01T09:09:00;16.20;99.90
23544;DHT22;11950;51.230;4.012;2023-05-01T09:11:27;16.30;99.90
23544;DHT22;11950;51.230;4.012;2023-05-01T09:13:53;16.40;99.90
23544;DHT22;11950;51.230;4.012;2023-05-01T09:16:20;16.40;99.90
23544;DHT22;11950;51.230;4.012;2023-05-01T09:18:47;16.50;99.90
23544;DHT22;11950;51.230;4.012;2023-05-01T09:21:14;16.60;99.90
23544;DHT22;11950;51.230;4.012;2023-05-01T09:23:40;16.60;99.90
23544;DHT22;11950;51.230;4.012;2023-05-01T09:26:06;16.70;99.90
23544;DHT22;11950;51.230;4.012;2023-05-01T09:28:43;16.80;99.90
23544;DHT22;11950;51.230;4.012;2023-05-01T09:31:22;16.90;99.90
23544;DHT22;11950;51.230;4.012;2023-05-01T09:33:56;17.00;99.90
23544;DHT22;11950;51.230;4.012;2023-05-01T09:36:24;17.00;99.90
23544;DHT22;11950;51.230;4.012;2023-05-01T09:38:50;17.10;99.90
23544;DHT22;11950;51.230;4.012;2023-05-01T09:41:19;17.30;99.90
23544;DHT22;11950;51.230;4.012;2023-05-01T09:43:53;17.40;99.90
23544;DHT22;11950;51.230;4.012;2023-05-01T09:46:21;17.50;99.90
23544;DHT22;11950;51.230;4.012;2023-05-01T09:51:25;17.70;99.90
23544;DHT22;11950;51.230;4.012;2023-05-01T09:53:59;17.80;99.90
23544;DHT22;11950;51.230;4.012;2023-05-01T09:56:28;17.80;99.90
23544;DHT22;11950;51.230;4.012;2023-05-01T09:58:56;17.90;99.90
23544;DHT22;11950;51.230;4.012;2023-05-01T10:01:43;18.00;99.90
23544;DHT22;11950;51.230;4.012;2023-05-01T10:04:10;18.10;99.90
23544;DHT22;11950;51.230;4.012;2023-05-01T10:06:38;18.20;99.90
23544;DHT22;11950;51.230;4.012;2023-05-01T10:09:05;18.20;99.90
23544;DHT22;11950;51.230;4.012;2023-05-01T10:11:59;18.30;99.90
23544;DHT22;11950;51.230;4.012;2023-05-01T10:14:26;18.40;99.90
23544;DHT22;11950;51.230;4.012;2023-05-01T10:16:54;18.40;99.90
23544;DHT22;11950;51.230;4.012;2023-05-01T10:19:22;18.50;99.90
23544;DHT22;11950;51.230;4.012;2023-05-01T10:21:49;18.50;99.90
23544;DHT22;11950;51.230;4.012;2023-05-01T10:24:15;18.60;99.90
23544;DHT22;11950;51.230;4.012;2023-05-01T10:26:42;18.60;99.90
23544;DHT22;11950;51.230;4.012;2023-05-01T10:29:08;18.70;99.90
23544;DHT22;11950;51.230;4.012;2023-05-01T10:31:35;18.70;99.90
23544;DHT22;11950;51.230;4.012;2023-05-01T10:34:02;18.80;99.90
23544;DHT22;11950;51.230;4.012;2023-05-01T10:36:36;18.90;99.90
23544;DHT22;11950;51.230;4.012;2023-05-01T10:39:03;18.90;99.90
23544;DHT22;11950;51.230;4.012;2023-05-01T10:44:26;19.00;99.90
23544;DHT22;11950;51.230;4.012;2023-05-01T10:46:53;19.20;99.90
23544;DHT22;11950;51.230;4.012;2023-05-01T10:49:20;19.20;99.90
23544;DHT22;11950;51.230;4.012;2023-05-01T10:56:56;19.30;99.90
23544;DHT22;11950;51.230;4.012;2023-05-01T11:00:13;19.40;99.90
23544;DHT22;11950;51.230;4.012;2023-05-01T11:02:23;19.40;99.90
23544;DHT22;11950;51.230;4.012;2023-05-01T11:04:51;19.40;99.90
23544;DHT22;11950;51.230;4.012;2023-05-01T11:07:20;19.40;99.90
23544;DHT22;11950;51.230;4.012;2023-05-01T11:09:54;19.50;99.90
23544;DHT22;11950;51.230;4.012;2023-05-01T11:15:24;19.60;99.90
23544;DHT22;11950;51.230;4.012;2023-05-01T11:17:51;19.70;99.90
23544;DHT22;11950;51.230;4.012;2023-05-01T11:22:54;19.70;99.90
23544;DHT22;11950;51.230;4.012;2023-05-01T11:25:26;19.80;99.90
23544;DHT22;11950;51.230;4.012;2023-05-01T11:27:54;19.80;99.90
23544;DHT22;11950;51.230;4.012;2023-05-01T11:30:21;19.80;99.90
23544;DHT22;11950;51.230;4.012;2023-05-01T11:32:48;19.80;99.90
23544;DHT22;11950;51.230;4.012;2023-05-01T11:35:19;19.80;99.90
23544;DHT22;11950;51.230;4.012;2023-05-01T11:37:46;19.70;99.90
23544;DHT22;11950;51.230;4.012;2023-05-01T11:40:27;19.80;99.90
23544;DHT22;11950;51.230;4.012;2023-05-01T11:43:03;19.90;99.90
23544;DHT22;11950;51.230;4.012;2023-05-01T11:45:30;19.90;99.90
23544;DHT22;11950;51.230;4.012;2023-05-01T11:47:57;19.90;99.90
23544;DHT22;11950;51.230;4.012;2023-05-01T11:50:37;19.90;99.90
23544;DHT22;11950;51.230;4.012;2023-05-01T11:53:10;19.90;99.90
23544;DHT22;11950;51.230;4.012;2023-05-01T11:55:40;20.00;99.90
23544;DHT22;11950;51.230;4.012;2023-05-01T11:58:07;20.10;99.90
23544;DHT22;11950;51.230;4.012;2023-05-01T12:00:35;20.10;99.90
23544;DHT22;11950;51.230;4.012;2023-05-01T12:03:08;20.20;99.90
23544;DHT22;11950;51.230;4.012;2023-05-01T12:05:37;20.20;99.90
23544;DHT22;11950;51.230;4.012;2023-05-01T12:08:11;20.20;99.90
23544;DHT22;11950;51.230;4.012;2023-05-01T12:10:41;20.10;99.90
23544;DHT22;11950;51.230;4.012;2023-05-01T12:13:10;20.10;99.90
23544;DHT22;11950;51.230;4.012;2023-05-01T12:15:40;20.10;99.90
23544;DHT22;11950;51.230;4.012;2023-05-01T12:18:07;20.10;99.90
23544;DHT22;11950;51.230;4.012;2023-05-01T12:20:44;20.10;99.90
23544;DHT22;11950;51.230;4.012;2023-05-01T12:23:13;20.10;99.90
23544;DHT22;11950;51.230;4.012;2023-05-01T12:25:42;20.10;99.90
23544;DHT22;11950;51.230;4.012;2023-05-01T12:28:16;20.00;99.90
23544;DHT22;11950;51.230;4.012;2023-05-01T12:30:46;20.00;99.90
23544;DHT22;11950;51.230;4.012;2023-05-01T12:33:16;20.00;99.90
23544;DHT22;11950;51.230;4.012;2023-05-01T12:35:43;20.00;99.90
23544;DHT22;11950;51.230;4.012;2023-05-01T12:38:16;20.10;99.90
23544;DHT22;11950;51.230;4.012;2023-05-01T12:43:21;20.00;99.90
23544;DHT22;11950;51.230;4.012;2023-05-01T12:45:51;20.00;99.90
23544;DHT22;11950;51.230;4.012;2023-05-01T12:48:19;20.00;99.90
23544;DHT22;11950;51.230;4.012;2023-05-01T12:50:46;20.00;99.90
23544;DHT22;11950;51.230;4.012;2023-05-01T12:53:20;20.10;99.90
23544;DHT22;11950;51.230;4.012;2023-05-01T12:55:51;20.10;99.90
23544;DHT22;11950;51.230;4.012;2023-05-01T12:58:18;20.00;99.90
23544;DHT22;11950;51.230;4.012;2023-05-01T13:00:52;20.00;99.90
23544;DHT22;11950;51.230;4.012;2023-05-01T13:03:26;20.00;99.90
23544;DHT22;11950;51.230;4.012;2023-05-01T13:06:00;20.00;99.90
23544;DHT22;11950;51.230;4.012;2023-05-01T13:11:02;20.00;99.90
23544;DHT22;11950;51.230;4.012;2023-05-01T13:13:34;20.00;99.90
23544;DHT22;11950;51.230;4.012;2023-05-01T13:16:11;20.00;99.90
23544;DHT22;11950;51.230;4.012;2023-05-01T13:18:48;20.00;99.90
23544;DHT22;11950;51.230;4.012;2023-05-01T13:21:18;20.00;99.90
23544;DHT22;11950;51.230;4.012;2023-05-01T13:23:55;20.10;99.90
23544;DHT22;11950;51.230;4.012;2023-05-01T13:26:30;20.20;99.90
23544;DHT22;11950;51.230;4.012;2023-05-01T13:28:59;20.20;99.90
23544;DHT22;11950;51.230;4.012;2023-05-01T13:31:26;20.20;99.90
23544;DHT22;11950;51.230;4.012;2023-05-01T13:33:54;20.20;99.90
23544;DHT22;11950;51.230;4.012;2023-05-01T13:36:21;20.20;99.90
23544;DHT22;11950;51.230;4.012;2023-05-01T13:38:53;20.20;99.90
23544;DHT22;11950;51.230;4.012;2023-05-01T13:41:24;20.10;99.90
23544;DHT22;11950;51.230;4.012;2023-05-01T13:43:53;20.10;99.90
23544;DHT22;11950;51.230;4.012;2023-05-01T13:46:21;20.10;99.90
23544;DHT22;11950;51.230;4.012;2023-05-01T13:48:48;20.10;99.90
23544;DHT22;11950;51.230;4.012;2023-05-01T13:51:23;20.10;99.90
23544;DHT22;11950;51.230;4.012;2023-05-01T13:53:50;20.10;99.90
23544;DHT22;11950;51.230;4.012;2023-05-01T13:56:18;20.10;99.90
23544;DHT22;11950;51.230;4.012;2023-05-01T13:58:44;20.10;99.90
23544;DHT22;11950;51.230;4.012;2023-05-01T14:01:15;20.10;99.90
23544;DHT22;11950;51.230;4.012;2023-05-01T14:03:42;20.10;99.90
23544;DHT22;11950;51.230;4.012;2023-05-01T14:06:19;20.10;99.90
23544;DHT22;11950;51.230;4.012;2023-05-01T14:08:47;20.00;99.90
23544;DHT22;11950;51.230;4.012;2023-05-01T14:11:14;19.90;99.90
23544;DHT22;11950;51.230;4.012;2023-05-01T14:13:42;19.80;99.90
23544;DHT22;11950;51.230;4.012;2023-05-01T14:16:21;19.80;99.90
23544;DHT22;11950;51.230;4.012;2023-05-01T14:18:48;19.70;99.90
23544;DHT22;11950;51.230;4.012;2023-05-01T14:21:15;19.70;99.90
23544;DHT22;11950;51.230;4.012;2023-05-01T14:23:42;19.60;99.90
23544;DHT22;11950;51.230;4.012;2023-05-01T14:26:09;19.60;99.90
23544;DHT22;11950;51.230;4.012;2023-05-01T14:28:40;19.50;99.90
23544;DHT22;11950;51.230;4.012;2023-05-01T14:31:08;19.40;99.90
23544;DHT22;11950;51.230;4.012;2023-05-01T14:33:40;19.30;99.90
23544;DHT22;11950;51.230;4.012;2023-05-01T14:36:11;19.20;99.90
23544;DHT22;11950;51.230;4.012;2023-05-01T14:38:38;19.10;99.90
23544;DHT22;11950;51.230;4.012;2023-05-01T14:41:05;19.10;99.90
23544;DHT22;11950;51.230;4.012;2023-05-01T14:43:32;19.20;99.90
23544;DHT22;11950;51.230;4.012;2023-05-01T14:45:59;19.20;99.90
23544;DHT22;11950;51.230;4.012;2023-05-01T14:48:32;19.20;99.90
23544;DHT22;11950;51.230;4.012;2023-05-01T14:50:59;19.30;99.90
23544;DHT22;11950;51.230;4.012;2023-05-01T14:53:31;19.30;99.90
23544;DHT22;11950;51.230;4.012;2023-05-01T14:55:57;19.30;99.90
23544;DHT22;11950;51.230;4.012;2023-05-01T14:58:23;19.30;99.90
23544;DHT22;11950;51.230;4.012;2023-05-01T15:00:50;19.30;99.90
23544;DHT22;11950;51.230;4.012;2023-05-01T15:03:16;19.30;99.90
23544;DHT22;11950;51.230;4.012;2023-05-01T15:05:43;19.30;99.90
23544;DHT22;11950;51.230;4.012;2023-05-01T15:08:10;19.30;99.90
23544;DHT22;11950;51.230;4.012;2023-05-01T15:10:37;19.30;99.90
23544;DHT22;11950;51.230;4.012;2023-05-01T15:13:03;19.30;99.90
23544;DHT22;11950;51.230;4.012;2023-05-01T15:15:31;19.30;99.90
23544;DHT22;11950;51.230;4.012;2023-05-01T15:17:57;19.30;99.90
23544;DHT22;11950;51.230;4.012;2023-05-01T15:20:23;19.30;99.90
23544;DHT22;11950;51.230;4.012;2023-05-01T15:22:49;19.30;99.90
23544;DHT22;11950;51.230;4.012;2023-05-01T15:25:16;19.20;99.90
23544;DHT22;11950;51.230;4.012;2023-05-01T15:27:42;19.20;99.90
23544;DHT22;11950;51.230;4.012;2023-05-01T15:30:09;19.20;99.90
23544;DHT22;11950;51.230;4.012;2023-05-01T15:32:36;19.20;99.90
23544;DHT22;11950;51.230;4.012;2023-05-01T15:35:03;19.20;99.90
23544;DHT22;11950;51.230;4.012;2023-05-01T15:37:30;19.10;99.90
23544;DHT22;11950;51.230;4.012;2023-05-01T15:39:56;19.10;99.90
23544;DHT22;11950;51.230;4.012;2023-05-01T15:42:23;19.10;99.90
23544;DHT22;11950;51.230;4.012;2023-05-01T15:44:49;19.10;99.90
23544;DHT22;11950;51.230;4.012;2023-05-01T15:47:15;19.10;99.90
23544;DHT22;11950;51.230;4.012;2023-05-01T15:49:41;19.10;99.90
23544;DHT22;11950;51.230;4.012;2023-05-01T15:52:08;19.10;99.90
23544;DHT22;11950;51.230;4.012;2023-05-01T15:54:34;19.00;99.90
23544;DHT22;11950;51.230;4.012;2023-05-01T15:57:00;19.00;99.90
23544;DHT22;11950;51.230;4.012;2023-05-01T15:59:28;18.90;99.90
23544;DHT22;11950;51.230;4.012;2023-05-01T16:01:54;18.90;99.90
23544;DHT22;11950;51.230;4.012;2023-05-01T16:04:21;18.90;99.90
23544;DHT22;11950;51.230;4.012;2023-05-01T16:06:47;18.90;99.90
23544;DHT22;11950;51.230;4.012;2023-05-01T16:09:13;18.80;99.90
23544;DHT22;11950;51.230;4.012;2023-05-01T16:11:39;18.70;99.90
23544;DHT22;11950;51.230;4.012;2023-05-01T16:14:09;18.70;99.90
23544;DHT22;11950;51.230;4.012;2023-05-01T16:16:39;18.60;99.90